Time;durP1;ratioP1;P1;durP2;ratioP2;P2;SDS_P1;SDS_P2;PMS_P1;PMS_P2;Temp;Humidity;BMP_temperature;BMP_pressure;BME280_temperature;BME280_humidity;BME280_pressure;Samples;Min_cycle;Max_cycle;Signal;HPM_P1;HPM_P2
2023/10/11 00:02:59;;;;;;;28.30;12.23;;;;;;;;;;4990431;28;20056;-86
2023/10/11 00:05:33;;;;;;;26.25;12.73;;;;;;;;;;4988109;28;20046;-85
2023/10/11 00:08:01;;;;;;;35.33;15.60;;;;;;;;;;5004211;28;20044;-89
2023/10/11 00:10:28;;;;;;;28.20;13.13;;;;;;;;;;4985414;28;20084;-86
2023/10/11 00:12:58;;;;;;;33.30;12.82;;;;;;;;;;5007652;28;20045;-89
2023/10/11 00:15:29;;;;;;;27.60;12.32;;;;;;;;;;4989352;28;20075;-86
2023/10/11 00:17:58;;;;;;;29.10;13.55;;;;;;;;;;5001197;28;20132;-84
2023/10/11 00:23:05;;;;;;;34.22;16.23;;;;;;;;;;4999937;28;20049;-88
2023/10/11 00:25:32;;;;;;;27.25;12.35;;;;;;;;;;4983492;28;20497;-85
2023/10/11 00:27:58;;;;;;;30.25;13.43;;;;;;;;;;5003911;28;20501;-86
2023/10/11 00:30:30;;;;;;;33.15;15.57;;;;;;;;;;4988102;28;20404;-88
2023/10/11 00:32:57;;;;;;;32.00;14.75;;;;;;;;;;5002155;28;20129;-87
2023/10/11 00:35:26;;;;;;;32.30;14.35;;;;;;;;;;5008288;28;20041;-86
2023/10/11 00:37:53;;;;;;;35.65;14.85;;;;;;;;;;5003431;28;20045;-88
2023/10/11 00:40:27;;;;;;;38.85;16.70;;;;;;;;;;5007122;28;20042;-88
2023/10/11 00:42:57;;;;;;;37.45;13.40;;;;;;;;;;4992964;28;20102;-79
2023/10/11 00:45:25;;;;;;;37.50;16.08;;;;;;;;;;5023532;28;20084;-79
2023/10/11 00:47:53;;;;;;;42.22;15.52;;;;;;;;;;5009349;28;20378;-80
2023/10/11 00:50:21;;;;;;;35.95;16.45;;;;;;;;;;5005743;28;20042;-80
2023/10/11 00:52:48;;;;;;;40.13;17.05;;;;;;;;;;5003753;28;20041;-80
2023/10/11 00:55:23;;;;;;;33.30;15.63;;;;;;;;;;4995228;28;20128;-80
2023/10/11 00:57:53;;;;;;;42.55;16.33;;;;;;;;;;5009308;28;20072;-80
2023/10/11 01:00:23;;;;;;;36.40;15.20;;;;;;;;;;5003064;28;20721;-80
2023/10/11 01:02:53;;;;;;;37.45;17.73;;;;;;;;;;4996459;28;20052;-79
2023/10/11 01:05:19;;;;;;;44.28;18.35;;;;;;;;;;5024946;28;20102;-80
2023/10/11 01:07:51;;;;;;;38.42;16.77;;;;;;;;;;5024336;28;20029;-80
2023/10/11 01:10:22;;;;;;;40.80;18.55;;;;;;;;;;5023977;28;20052;-79
2023/10/11 01:12:51;;;;;;;48.20;17.65;;;;;;;;;;5006629;28;20375;-79
2023/10/11 01:15:22;;;;;;;33.35;16.23;;;;;;;;;;5010379;28;20041;-79
2023/10/11 01:17:50;;;;;;;44.80;16.50;;;;;;;;;;5022672;28;20509;-78
2023/10/11 01:20:19;;;;;;;41.95;18.23;;;;;;;;;;5022267;28;20088;-79
2023/10/11 01:22:45;;;;;;;35.47;15.82;;;;;;;;;;4986790;28;20728;-80
2023/10/11 01:25:18;;;;;;;25.02;13.18;;;;;;;;;;5007938;28;20037;-80
2023/10/11 01:27:48;;;;;;;31.63;13.38;;;;;;;;;;4993766;28;20029;-80
2023/10/11 01:30:14;;;;;;;37.20;15.35;;;;;;;;;;5007529;28;20095;-80
2023/10/11 01:32:41;;;;;;;36.25;16.20;;;;;;;;;;5023947;28;20037;-82
2023/10/11 01:35:19;;;;;;;42.47;15.73;;;;;;;;;;5020207;28;20053;-81
2023/10/11 01:37:48;;;;;;;35.65;15.45;;;;;;;;;;5007387;28;20382;-80
2023/10/11 01:40:31;;;;;;;35.92;17.05;;;;;;;;;;5027799;28;20042;-80
2023/10/11 01:42:58;;;;;;;38.15;15.85;;;;;;;;;;5020626;28;20896;-80
2023/10/11 01:45:24;;;;;;;34.92;16.35;;;;;;;;;;5024194;28;20075;-79
2023/10/11 01:47:56;;;;;;;35.80;17.30;;;;;;;;;;5021694;28;20136;-80
2023/10/11 01:50:25;;;;;;;40.03;16.77;;;;;;;;;;5022377;28;20041;-80
2023/10/11 01:52:51;;;;;;;46.90;15.75;;;;;;;;;;5005547;28;20037;-82
2023/10/11 01:55:17;;;;;;;41.05;15.93;;;;;;;;;;4989904;28;20120;-82
2023/10/11 01:57:49;;;;;;;39.97;16.35;;;;;;;;;;5002516;28;20077;-82
2023/10/11 02:00:16;;;;;;;39.85;18.42;;;;;;;;;;4991624;28;20076;-82
2023/10/11 02:02:52;;;;;;;34.35;14.38;;;;;;;;;;4992570;28;20042;-82
2023/10/11 02:05:21;;;;;;;39.97;16.48;;;;;;;;;;4990092;28;20041;-82
2023/10/11 02:07:47;;;;;;;39.60;17.05;;;;;;;;;;4979789;28;20567;-81
2023/10/11 02:10:13;;;;;;;38.55;16.80;;;;;;;;;;4996303;28;20041;-82
2023/10/11 02:12:46;;;;;;;37.25;16.75;;;;;;;;;;5012462;28;20048;-81
2023/10/11 02:15:21;;;;;;;37.95;17.73;;;;;;;;;;4982077;28;20067;-82
2023/10/11 02:17:48;;;;;;;38.38;14.75;;;;;;;;;;5009483;28;20095;-82
2023/10/11 02:20:15;;;;;;;44.53;17.10;;;;;;;;;;4992204;28;20378;-82
2023/10/11 02:22:44;;;;;;;44.60;18.73;;;;;;;;;;4990154;28;20084;-82
2023/10/11 02:25:15;;;;;;;38.55;15.93;;;;;;;;;;4979467;28;20042;-82
2023/10/11 02:27:42;;;;;;;39.10;15.27;;;;;;;;;;5005149;28;20048;-82
2023/10/11 02:30:13;;;;;;;35.15;14.43;;;;;;;;;;5019530;28;20088;-81
2023/10/11 02:32:42;;;;;;;40.92;15.57;;;;;;;;;;4987461;28;20038;-82
2023/10/11 02:35:13;;;;;;;43.65;15.38;;;;;;;;;;4993011;28;20103;-82
2023/10/11 02:37:45;;;;;;;30.25;13.88;;;;;;;;;;4986536;28;20539;-82
2023/10/11 02:40:16;;;;;;;37.22;15.02;;;;;;;;;;4972456;28;20072;-82
2023/10/11 02:42:43;;;;;;;35.90;14.70;;;;;;;;;;5006087;28;20541;-82
2023/10/11 02:45:12;;;;;;;33.72;14.93;;;;;;;;;;4977073;28;20530;-82
2023/10/11 02:47:38;;;;;;;39.47;16.15;;;;;;;;;;4991382;28;20399;-81
2023/10/11 02:50:05;;;;;;;36.22;14.52;;;;;;;;;;4975813;28;20043;-81
2023/10/11 02:52:39;;;;;;;36.88;16.45;;;;;;;;;;4989546;28;20038;-82
2023/10/11 02:55:21;;;;;;;35.00;15.40;;;;;;;;;;5001724;28;20064;-82
2023/10/11 02:57:57;;;;;;;41.67;16.05;;;;;;;;;;4990663;28;20057;-82
2023/10/11 03:00:23;;;;;;;37.38;15.43;;;;;;;;;;4992919;28;20052;-82
2023/10/11 03:02:56;;;;;;;37.22;16.98;;;;;;;;;;5006307;28;20037;-89
2023/10/11 03:05:29;;;;;;;38.28;15.68;;;;;;;;;;4991463;28;20037;-87
2023/10/11 03:08:16;;;;;;;32.58;15.25;;;;;;;;;;5008398;28;20041;-88
2023/10/11 03:10:56;;;;;;;47.33;18.13;;;;;;;;;;4985709;28;20104;-84
2023/10/11 03:13:29;;;;;;;42.92;16.27;;;;;;;;;;5017984;28;20124;-85
2023/10/11 03:15:59;;;;;;;45.15;15.45;;;;;;;;;;5001159;28;20105;-87
2023/10/11 03:18:25;;;;;;;39.45;15.60;;;;;;;;;;5005134;28;20076;-86
2023/10/11 03:20:58;;;;;;;42.45;17.55;;;;;;;;;;4985383;28;20091;-88
2023/10/11 03:23:27;;;;;;;47.63;18.10;;;;;;;;;;4992114;28;20046;-89
2023/10/11 03:25:54;;;;;;;34.90;17.63;;;;;;;;;;5004912;28;20114;-88
2023/10/11 03:28:26;;;;;;;48.15;17.42;;;;;;;;;;4993484;28;20071;-87
2023/10/11 03:30:52;;;;;;;47.00;18.98;;;;;;;;;;5004295;28;20045;-88
2023/10/11 03:33:18;;;;;;;39.75;17.45;;;;;;;;;;4993608;28;20115;-87
2023/10/11 03:35:45;;;;;;;42.20;18.45;;;;;;;;;;4989087;28;20045;-89
2023/10/11 03:38:17;;;;;;;43.50;17.48;;;;;;;;;;4989569;28;20037;-87
2023/10/11 03:41:10;;;;;;;37.90;17.23;;;;;;;;;;5004078;28;20050;-85
2023/10/11 03:43:40;;;;;;;37.15;17.85;;;;;;;;;;4992530;28;21204;-89
2023/10/11 03:46:07;;;;;;;50.22;16.77;;;;;;;;;;5005789;28;20041;-89
2023/10/11 03:48:44;;;;;;;35.63;15.75;;;;;;;;;;4987670;28;20042;-88
2023/10/11 03:51:10;;;;;;;44.80;17.45;;;;;;;;;;5004416;28;20171;-87
2023/10/11 03:53:39;;;;;;;40.10;17.17;;;;;;;;;;4988656;28;20500;-87
2023/10/11 03:56:06;;;;;;;37.22;15.55;;;;;;;;;;4975794;28;20144;-88
2023/10/11 04:01:04;;;;;;;40.00;16.30;;;;;;;;;;5004188;28;20053;-89
2023/10/11 04:03:30;;;;;;;44.10;18.75;;;;;;;;;;4977083;28;20037;-86
2023/10/11 04:05:58;;;;;;;34.65;15.43;;;;;;;;;;4976737;28;20145;-89
2023/10/11 04:08:25;;;;;;;36.85;15.15;;;;;;;;;;4990611;28;20034;-88
2023/10/11 04:10:53;;;;;;;38.90;16.42;;;;;;;;;;4984918;28;21233;-84
2023/10/11 04:13:25;;;;;;;41.13;15.80;;;;;;;;;;5005321;28;20038;-88
2023/10/11 04:15:59;;;;;;;34.05;14.52;;;;;;;;;;4981527;28;20129;-87
2023/10/11 04:21:15;;;;;;;37.40;13.57;;;;;;;;;;4989790;28;20053;-83
2023/10/11 04:23:46;;;;;;;41.63;16.35;;;;;;;;;;4992980;28;20046;-79
2023/10/11 04:29:17;;;;;;;22.65;11.27;;;;;;;;;;4988921;28;20099;-79
2023/10/11 04:31:55;;;;;;;35.42;14.45;;;;;;;;;;4999004;28;20049;-79
2023/10/11 04:34:31;;;;;;;40.42;15.07;;;;;;;;;;4988582;28;20081;-79
2023/10/11 04:36:59;;;;;;;41.10;15.30;;;;;;;;;;4998223;28;20100;-78
2023/10/11 04:39:49;;;;;;;37.22;13.63;;;;;;;;;;5002475;28;20046;-78
2023/10/11 04:42:16;;;;;;;31.13;14.13;;;;;;;;;;4999953;28;20057;-79
2023/10/11 04:44:46;;;;;;;40.08;15.50;;;;;;;;;;5005565;28;20057;-79
2023/10/11 04:47:17;;;;;;;32.25;13.10;;;;;;;;;;4972227;28;20100;-80
2023/10/11 04:49:45;;;;;;;30.90;13.18;;;;;;;;;;4998667;28;20342;-78
2023/10/11 04:52:13;;;;;;;35.15;14.23;;;;;;;;;;5000516;28;20077;-80
2023/10/11 04:54:53;;;;;;;27.60;12.07;;;;;;;;;;4989328;28;20034;-80
2023/10/11 04:57:24;;;;;;;40.53;14.30;;;;;;;;;;5022835;28;20103;-81
2023/10/11 04:59:59;;;;;;;31.50;13.60;;;;;;;;;;5002797;28;20057;-79
2023/10/11 05:02:32;;;;;;;;;;;16.00;99.90;;;;;;5007641;28;20049;-78
2023/10/11 05:05:10;;;;;;;42.70;14.45;;;;;;;;;;4988709;28;20000;-80
2023/10/11 05:07:42;;;;;;;41.55;14.38;;;;;;;;;;5016305;28;20045;-79
2023/10/11 05:12:57;;;;;;;32.92;14.10;;;;;;;;;;5027265;28;20386;-80
2023/10/11 05:15:29;;;;;;;34.53;13.15;;;;;;;;;;5023102;28;20310;-81
2023/10/11 05:18:06;;;;;;;38.13;14.85;;;;;;;;;;4992525;28;20409;-80
2023/10/11 05:21:18;;;;;;;47.13;15.00;;;;;;;;;;4980466;28;20049;-80
2023/10/11 05:23:33;;;;;;;34.50;14.32;;;;;;;;;;4996065;28;20077;-83
2023/10/11 05:25:59;;;;;;;39.92;14.85;;;;;;;;;;4994479;28;20037;-84
2023/10/11 05:28:43;;;;;;;35.08;13.70;;;;;;;;;;4980963;28;20068;-83
2023/10/11 05:33:45;;;;;;;34.05;13.68;;;;;;;;;;4987603;28;20049;-83
2023/10/11 05:36:40;;;;;;;46.90;15.30;;;;;;;;;;5014367;28;20098;-80
2023/10/11 05:52:47;;;;;;;33.78;13.55;;;;;;;;;;5021634;28;20054;-79
2023/10/11 05:55:17;;;;;;;39.80;14.20;;;;;;;;;;5021303;28;20435;-81
2023/10/11 05:57:44;;;;;;;42.70;14.45;;;;;;;;;;4977313;28;20045;-79
2023/10/11 06:00:23;;;;;;;33.83;11.95;;;;;;;;;;5000720;28;20496;-81
2023/10/11 06:02:49;;;;;;;37.50;13.90;;;;;;;;;;4993377;28;20041;-81
2023/10/11 06:05:17;;;;;;;25.20;12.18;;;;;;;;;;4986507;28;20504;-80
2023/10/11 06:07:44;;;;;;;39.20;13.57;;;;;;;;;;4994137;28;20049;-80
2023/10/11 06:10:13;;;;;;;37.17;14.57;;;;;;;;;;4997179;28;20525;-83
2023/10/11 06:12:40;;;;;;;33.70;13.07;;;;;;;;;;4993597;28;20041;-81
2023/10/11 06:15:16;;;;;;;45.22;13.50;;;;;;;;;;4980244;28;20436;-81
2023/10/11 06:17:42;;;;;;;36.08;11.73;;;;;;;;;;4978213;28;20477;-81
2023/10/11 06:21:01;;;;;;;26.20;11.55;;;;;;;;;;4980631;28;20037;-82
2023/10/11 06:23:05;;;;;;;32.15;12.00;;;;;;;;;;5003056;28;20497;-82
2023/10/11 06:25:49;;;;;;;31.13;12.50;;;;;;;;;;4974654;28;20046;-80
2023/10/11 06:28:16;;;;;;;32.67;13.55;;;;;;;;;;4993355;28;20447;-80
2023/10/11 06:30:50;;;;;;;35.55;13.43;;;;;;;;;;5009802;28;20124;-80
2023/10/11 06:33:21;;;;;;;36.83;13.82;;;;;;;;;;4990182;28;20155;-82
2023/10/11 06:35:49;;;;;;;30.80;11.32;;;;;;;;;;5011634;28;20116;-81
2023/10/11 06:38:15;;;;;;;38.78;14.07;;;;;;;;;;4999591;28;20142;-81
2023/10/11 06:40:49;;;;;;;39.65;14.38;;;;;;;;;;4993725;28;20041;-82
2023/10/11 06:43:15;;;;;;;;;;;;;;;;;;5001668;28;20525;-81
2023/10/11 06:45:42;;;;;;;38.28;12.50;;;;;;;;;;5015756;28;20353;-83
2023/10/11 06:48:16;;;;;;;36.53;12.80;;;;;;;;;;5008229;28;20041;-84
2023/10/11 06:50:42;;;;;;;34.05;12.32;;;;;;;;;;5009216;28;20068;-83
2023/10/11 06:53:09;;;;;;;35.63;13.07;;;;;;;;;;5010526;28;20386;-83
2023/10/11 06:55:36;;;;;;;34.55;12.90;;;;;;;;;;5014058;28;20044;-83
2023/10/11 06:58:21;;;;;;;32.47;11.80;;;;;;;;;;4999460;28;20045;-83
2023/10/11 07:00:53;;;;;;;32.92;12.48;;;;;;;;;;5003075;28;20120;-83
2023/10/11 07:06:10;;;;;;;31.92;11.88;;;;;;;;;;5007373;28;20056;-83
2023/10/11 07:08:36;;;;;;;26.73;11.43;;;;;;;;;;5004575;28;20041;-83
2023/10/11 07:16:37;;;;;;;30.02;11.60;;;;;;;;;;4962293;28;20046;-83
2023/10/11 07:19:04;;;;;;;30.92;10.73;;;;;;;;;;4942205;28;20062;-82
2023/10/11 07:21:51;;;;;;;36.45;13.60;;;;;;;;;;4960412;28;20448;-82
2023/10/11 07:26:56;;;;;;;33.33;11.20;;;;;;;;;;5007479;28;20042;-84
2023/10/11 07:29:22;;;;;;;24.92;10.30;;;;;;;;;;4989649;28;20120;-84
2023/10/11 07:31:48;;;;;;;35.50;11.57;;;;;;;;;;4971393;28;20034;-85
2023/10/11 07:34:20;;;;;;;24.83;10.77;;;;;;;;;;5010392;28;20049;-85
2023/10/11 07:36:48;;;;;;;26.30;10.30;;;;;;;;;;5009871;28;20049;-85
2023/10/11 07:39:19;;;;;;;22.83;9.73;;;;;;;;;;4993447;28;20117;-84
2023/10/11 07:41:48;;;;;;;24.67;9.52;;;;;;;;;;5000875;28;20052;-85
2023/10/11 07:44:14;;;;;;;21.73;8.20;;;;;;;;;;4990634;28;20116;-83
2023/10/11 07:46:40;;;;;;;23.10;9.10;;;;;;;;;;5009123;28;20042;-82
2023/10/11 07:49:07;;;;;;;22.10;9.80;;;;;;;;;;4999614;28;20044;-83
2023/10/11 07:51:39;;;;;;;21.88;9.15;;;;;;;;;;4994927;28;20037;-83
2023/10/11 07:54:19;;;;;;;28.90;10.35;;;;;;;;;;4987547;28;20041;-84
2023/10/11 07:56:55;;;;;;;20.50;8.68;;;;;;;;;;4997400;28;20056;-84
2023/10/11 07:59:26;;;;;;;21.55;8.13;;;;;;;;;;4991280;28;20044;-82
2023/10/11 08:01:54;;;;;;;20.83;8.45;;;;;;;;;;5004664;28;20073;-82
2023/10/11 08:04:29;;;;;;;22.00;8.77;;;;;;;;;;4989524;28;20049;-82
2023/10/11 08:06:59;;;;;;;19.67;8.95;;;;;;;;;;5012402;28;20044;-82
2023/10/11 08:09:34;;;;;;;23.08;10.75;;;;;;;;;;5005737;28;20038;-82
2023/10/11 08:12:00;;;;;;;28.15;10.23;;;;;;;;;;4996363;28;20463;-82
2023/10/11 08:14:29;;;;;;;19.73;8.75;;;;;;;;;;5013975;28;20124;-81
2023/10/11 08:16:56;;;;;;;19.13;9.43;;;;;;;;;;4998973;28;20386;-82
2023/10/11 08:19:23;;;;;;;26.45;10.50;;;;;;;;;;5009295;28;20041;-81
2023/10/11 08:21:57;;;;;;;31.00;10.52;;;;;;;;;;4996270;28;20047;-81
2023/10/11 08:24:40;;;;;;;22.58;9.43;;;;;;;;;;4997391;28;20084;-81
2023/10/11 08:27:08;;;;;;;22.58;9.70;;;;;;;;;;5006280;28;20044;-82
2023/10/11 08:29:37;;;;;;;25.55;10.35;;;;;;;;;;5003698;28;20037;-82
2023/10/11 08:32:06;;;;;;;24.02;9.05;;;;;;;;;;4992778;28;20041;-81
2023/10/11 08:34:33;;;;;;;20.10;10.45;;;;;;;;;;5011325;28;20054;-82
2023/10/11 08:36:59;;;;;;;35.08;10.98;;;;;;;;;;5003982;28;20518;-81
2023/10/11 08:39:45;;;;;;;24.15;10.48;;;;;;;;;;5002217;28;20334;-82
2023/10/11 08:42:14;;;;;;;24.58;9.02;;;;;;;;;;4996151;28;20579;-82
2023/10/11 08:44:44;;;;;;;24.08;9.55;;;;;;;;;;4998220;28;20090;-81
2023/10/11 08:47:13;;;;;;;27.60;10.82;;;;;;;;;;4988981;28;20045;-82
2023/10/11 08:49:48;;;;;;;23.02;9.77;;;;;;;;;;5004063;28;20082;-82
2023/10/11 08:52:19;;;;;;;26.73;10.38;;;;;;;;;;4987933;28;20431;-80
2023/10/11 08:54:48;;;;;;;27.42;11.55;;;;;;;;;;4990708;28;20133;-84
2023/10/11 08:57:14;;;;;;;23.63;10.57;;;;;;;;;;4997833;28;20046;-83
2023/10/11 08:59:50;;;;;;;25.70;10.75;;;;;;;;;;4990049;28;20057;-83
2023/10/11 09:02:17;;;;;;;23.80;10.55;;;;;;;;;;5000513;28;20054;-83
2023/10/11 09:04:56;;;;;;;31.23;11.02;;;;;;;;;;5001693;28;20114;-89
2023/10/11 09:07:37;;;;;;;26.20;10.98;;;;;;;;;;5008348;28;20046;-90
2023/10/11 09:10:25;;;;;;;26.08;10.75;;;;;;;;;;5007164;28;20046;-87
2023/10/11 09:12:56;;;;;;;22.92;10.60;;;;;;;;;;4996722;28;20030;-86
2023/10/11 09:15:23;;;;;;;24.23;10.07;;;;;;;;;;5008825;28;20049;-85
2023/10/11 09:17:51;;;;;;;22.25;8.20;;;;;;;;;;4999190;28;20037;-87
2023/10/11 09:20:40;;;;;;;15.38;8.32;;;;;;;;;;4993489;28;20133;-88
2023/10/11 09:23:03;;;;;;;17.20;8.43;;;;;;;;;;4994862;28;20161;-89
2023/10/11 09:25:33;;;;;;;16.73;8.48;;;;;;;;;;4992808;28;21940;-85
2023/10/11 09:27:59;;;;;;;17.13;7.38;;;;;;;;;;4995246;28;20049;-88
2023/10/11 09:30:27;;;;;;;14.60;7.20;;;;;;;;;;4995607;28;20072;-88
2023/10/11 09:32:59;;;;;;;13.00;7.00;;;;;;;;;;4977429;28;20153;-83
2023/10/11 09:35:26;;;;;;;12.07;6.90;;;;;;;;;;5016697;28;20049;-87
2023/10/11 09:37:59;;;;;;;12.90;7.03;;;;;;;;;;4985560;28;20044;-86
2023/10/11 09:40:34;;;;;;;12.57;6.87;;;;;;;;;;4978929;28;20063;-88
2023/10/11 09:43:01;;;;;;;13.77;7.20;;;;;;;;;;5009456;28;20072;-87
2023/10/11 09:45:42;;;;;;;12.30;6.65;;;;;;;;;;5012876;28;20150;-85
2023/10/11 09:48:15;;;;;;;15.10;6.55;;;;;;;;;;5004873;28;20111;-85
2023/10/11 09:50:41;;;;;;;11.05;5.82;;;;;;;;;;5003363;28;20049;-87
2023/10/11 09:53:11;;;;;;;13.05;6.28;;;;;;;;;;4996326;28;20063;-86
2023/10/11 09:55:42;;;;;;;10.40;5.75;;;;;;;;;;4992565;28;20096;-87
2023/10/11 09:58:31;;;;;;;11.15;6.18;;;;;;;;;;5009525;28;20038;-86
2023/10/11 10:01:08;;;;;;;20.60;6.22;;;;;;;;;;4996303;28;20057;-87
2023/10/11 10:03:38;;;;;;;16.42;6.97;;;;;;;;;;5009440;28;20078;-87
2023/10/11 10:06:23;;;;;;;11.18;6.60;;;;;;;;;;5012148;28;20493;-87
2023/10/11 10:09:16;;;;;;;11.60;6.00;;;;;;;;;;4997102;28;20080;-88
2023/10/11 10:12:09;;;;;;;10.07;6.23;;;;;;;;;;5000119;28;20049;-87
2023/10/11 10:14:36;;;;;;;7.57;5.90;;;;;;;;;;4991191;28;20052;-81
2023/10/11 10:17:16;;;;;;;13.18;6.57;;;;;;;;;;5012368;28;20049;-81
2023/10/11 10:19:46;;;;;;;11.68;5.80;;;;;;;;;;5011750;28;20052;-81
2023/10/11 10:22:16;;;;;;;14.52;5.95;;;;;;;;;;5000079;28;20042;-82
2023/10/11 10:24:43;;;;;;;10.43;6.30;;;;;;;;;;5000160;28;20085;-82
2023/10/11 10:27:34;;;;;;;15.27;7.22;;;;;;;;;;5007909;28;21122;-82
2023/10/11 10:30:01;;;;;;;15.77;6.78;;;;;;;;;;5008096;28;20481;-81
2023/10/11 10:32:27;;;;;;;13.48;6.60;;;;;;;;;;5000614;28;20056;-83
2023/10/11 10:35:18;;;;;;;14.68;7.47;;;18.30;99.90;;;;;;5007422;28;20053;-83
2023/10/11 10:37:55;;;;;;;13.57;6.88;;;;;;;;;;4998039;28;20053;-82
2023/10/11 10:40:25;;;;;;;8.95;5.72;;;;;;;;;;5008394;28;20120;-82
2023/10/11 10:43:14;;;;;;;12.63;6.57;;;;;;;;;;5014887;28;20049;-82
2023/10/11 10:45:41;;;;;;;18.10;6.97;;;;;;;;;;5012126;28;20558;-82
2023/10/11 10:48:14;;;;;;;16.90;6.68;;;;;;;;;;5014591;28;20053;-82
2023/10/11 10:50:49;;;;;;;16.50;5.90;;;;;;;;;;5011267;28;20062;-82
2023/10/11 10:53:15;;;;;;;10.40;6.50;;;;;;;;;;5011064;28;20092;-82
2023/10/11 10:55:42;;;;;;;13.02;6.32;;;;;;;;;;5008861;28;20040;-82
2023/10/11 10:58:15;;;;;;;12.75;5.95;;;;;;;;;;5011652;28;20132;-83
2023/10/11 11:00:43;;;;;;;16.50;6.60;;;;;;;;;;4983923;28;20085;-82
2023/10/11 11:03:23;;;;;;;14.48;6.53;;;;;;;;;;5009937;28;20301;-83
2023/10/11 11:05:55;;;;;;;11.05;5.72;;;;;;;;;;4997949;28;20397;-83
2023/10/11 11:08:25;;;;;;;12.48;5.78;;;;;;;;;;4998487;28;20041;-83
2023/10/11 11:11:28;;;;;;;11.52;5.72;;;;;;;;;;5005521;28;20037;-82
2023/10/11 11:13:57;;;;;;;13.20;6.20;;;;;;;;;;4994164;28;20195;-82
2023/10/11 11:16:26;;;;;;;12.57;5.65;;;;;;;;;;5007307;28;20045;-81
2023/10/11 11:19:01;;;;;;;8.90;4.78;;;;;;;;;;4989172;28;20470;-81
2023/10/11 11:21:29;;;;;;;12.60;6.18;;;;;;;;;;4998191;28;20048;-81
2023/10/11 11:23:55;;;;;;;10.80;5.05;;;;;;;;;;5010721;28;20038;-81
2023/10/11 11:26:31;;;;;;;10.07;5.22;;;;;;;;;;4981372;28;20075;-82
2023/10/11 11:29:11;;;;;;;14.68;4.65;;;;;;;;;;4996174;28;20041;-82
2023/10/11 11:31:51;;;;;;;14.68;5.20;;;;;;;;;;5008845;28;20047;-82
2023/10/11 11:34:27;;;;;;;15.18;5.72;;;;;;;;;;5014579;28;20122;-82
2023/10/11 11:36:57;;;;;;;13.13;4.57;;;;;;;;;;4999714;28;20551;-82
2023/10/11 11:39:27;;;;;;;9.18;4.20;;;;;;;;;;5006038;28;20041;-82
2023/10/11 11:41:55;;;;;;;8.45;4.45;;;;;;;;;;5006564;28;20517;-82
2023/10/11 11:44:27;;;;;;;10.10;4.50;;;;;;;;;;5001752;28;20092;-82
2023/10/11 11:46:54;;;;;;;9.80;4.32;;;;;;;;;;4975940;28;20041;-82
2023/10/11 11:49:22;;;;;;;8.60;4.65;;;;;;;;;;4994547;28;20113;-82
2023/10/11 11:51:50;;;;;;;9.40;4.43;;;;;;;;;;4997966;28;20484;-82
2023/10/11 11:54:19;;;;;;;9.32;4.53;;;;;;;;;;5015909;28;20044;-80
2023/10/11 11:56:45;;;;;;;7.68;3.30;;;;;;;;;;5018306;28;20055;-81
2023/10/11 11:59:17;;;;;;;12.57;4.22;;;;;;;;;;4980088;28;20421;-82
2023/10/11 12:01:52;;;;;;;8.55;4.60;;;;;;;;;;5005071;28;20157;-82
2023/10/11 12:04:32;;;;;;;13.65;4.50;;;;;;;;;;5014129;28;20485;-82
2023/10/11 12:07:03;;;;;;;7.97;4.00;;;;;;;;;;5016091;28;20045;-81
2023/10/11 12:09:34;;;;;;;9.30;4.28;;;;;;;;;;5005299;28;20042;-81
2023/10/11 12:12:07;;;;;;;11.32;3.85;;;;;;;;;;4993758;28;20045;-82
2023/10/11 12:14:38;;;;;;;11.30;3.97;;;;;;;;;;4995129;28;20139;-82
2023/10/11 12:17:11;;;;;;;9.70;4.00;;;;;;;;;;5005456;28;20300;-82
2023/10/11 12:19:44;;;;;;;9.80;4.15;;;;;;;;;;5012528;28;20140;-82
2023/10/11 12:22:14;;;;;;;9.55;4.00;;;;;;;;;;5010448;28;20048;-81
2023/10/11 12:24:46;;;;;;;12.68;4.10;;;;;;;;;;4992867;28;20068;-81
2023/10/11 12:27:12;;;;;;;9.60;3.90;;;;;;;;;;5013548;28;20046;-87
2023/10/11 12:29:39;;;;;;;9.18;4.50;;;;;;;;;;4995396;28;20044;-86
2023/10/11 12:32:07;;;;;;;10.90;4.10;;;;;;;;;;5001871;28;20029;-88
2023/10/11 12:34:33;;;;;;;10.18;4.20;;;;;;;;;;5005123;28;20049;-85
2023/10/11 12:37:02;;;;;;;12.63;4.28;;;;;;;;;;4995400;28;20442;-81
2023/10/11 12:39:33;;;;;;;7.10;3.13;;;;;;;;;;4985328;28;20063;-81
2023/10/11 12:41:59;;;;;;;7.60;3.90;;;;;;;;;;4998317;28;20050;-80
2023/10/11 12:44:29;;;;;;;10.20;3.45;;;;;;;;;;5004321;28;20488;-82
2023/10/11 12:47:00;;;;;;;9.93;4.00;;;;;;;;;;4987246;28;20490;-82
2023/10/11 12:49:27;;;;;;;12.45;3.63;;;;;;;;;;5016330;28;20073;-81
2023/10/11 12:51:54;;;;;;;10.68;3.50;;;;;;;;;;4984723;28;20048;-82
2023/10/11 12:54:20;;;;;;;10.63;3.97;;;;;;;;;;5004126;28;20034;-82
2023/10/11 12:56:47;;;;;;;8.35;3.25;;;;;;;;;;5003739;28;20516;-82
2023/10/11 12:59:13;;;;;;;11.38;3.97;;;;;;;;;;4989015;28;20038;-82
2023/10/11 13:01:41;;;;;;;7.45;2.80;;;;;;;;;;4996971;28;20045;-83
2023/10/11 13:04:17;;;;;;;9.40;3.40;;;;;;;;;;4992396;28;20045;-82
2023/10/11 13:06:49;;;;;;;8.57;3.40;;;;;;;;;;5006193;28;20046;-82
2023/10/11 13:09:16;;;;;;;10.05;2.92;;;;;;;;;;4993229;28;20040;-82
2023/10/11 13:11:46;;;;;;;12.07;3.67;;;;;;;;;;5015138;28;20042;-83
2023/10/11 13:14:18;;;;;;;9.05;3.42;;;;;;;;;;4998080;28;20045;-82
2023/10/11 13:16:57;;;;;;;7.15;3.45;;;;;;;;;;4983047;28;20049;-82
2023/10/11 13:19:24;;;;;;;8.20;3.25;;;;;;;;;;5003238;28;20535;-82
2023/10/11 13:21:53;;;;;;;9.20;3.50;;;;;;;;;;4990835;28;20394;-81
2023/10/11 13:24:23;;;;;;;14.05;4.18;;;;;;;;;;5007186;28;20493;-82
2023/10/11 13:26:55;;;;;;;7.72;3.28;;;;;;;;;;5016474;28;20069;-82
2023/10/11 13:29:21;;;;;;;8.70;3.60;;;;;;;;;;4978145;28;20809;-82
2023/10/11 13:31:48;;;;;;;10.15;3.42;;;;;;;;;;5006890;28;20503;-82
2023/10/11 13:34:14;;;;;;;8.68;4.55;;;;;;;;;;4995784;28;20354;-81
2023/10/11 13:36:44;;;;;;;6.65;3.75;;;;;;;;;;4995604;28;20041;-83
2023/10/11 13:39:25;;;;;;;8.45;3.95;;;;;;;;;;5030192;28;20131;-88
2023/10/11 13:42:03;;;;;;;13.55;3.65;;;;;;;;;;4987001;28;20038;-87
2023/10/11 13:44:31;;;;;;;9.25;3.65;;;;;;;;;;5015734;28;20045;-89
2023/10/11 13:46:58;;;;;;;7.65;3.67;;;;;;;;;;5017756;28;20150;-80
2023/10/11 13:49:26;;;;;;;11.18;3.42;;;;;;;;;;4990719;28;20061;-81
2023/10/11 13:51:53;;;;;;;16.17;4.28;;;;;;;;;;4996873;28;20337;-80
2023/10/11 13:54:31;;;;;;;8.82;3.53;;;;;;;;;;4997017;28;20128;-81
2023/10/11 13:57:10;;;;;;;7.65;3.17;;;;;;;;;;4995750;28;20084;-81
2023/10/11 13:59:37;;;;;;;8.80;3.63;;;;;;;;;;5008563;28;20104;-81
2023/10/11 14:02:44;;;;;;;10.40;3.70;;;;;;;;;;4992217;28;20060;-81
2023/10/11 14:05:26;;;;;;;11.32;3.85;;;;;;;;;;5011373;28;20049;-81
2023/10/11 14:07:50;;;;;;;12.07;3.60;;;;;;;;;;5006702;28;20068;-81
2023/10/11 14:10:21;;;;;;;7.72;3.28;;;;;;;;;;4999129;28;20073;-81
2023/10/11 14:12:48;;;;;;;6.70;3.20;;;;;;;;;;4982465;28;20041;-82
2023/10/11 14:15:18;;;;;;;8.38;4.10;;;;;;;;;;5009981;28;20070;-82
2023/10/11 14:17:47;;;;;;;12.00;3.70;;;;;;;;;;4998869;28;20399;-82
2023/10/11 14:20:19;;;;;;;9.27;3.42;;;;;;;;;;4994710;28;20037;-83
2023/10/11 14:22:49;;;;;;;8.30;3.17;;;;;;;;;;5015193;28;20037;-83
2023/10/11 14:25:18;;;;;;;7.47;2.30;;;;;;;;;;4989683;28;20046;-84
2023/10/11 14:27:48;;;;;;;4.78;2.92;;;;;;;;;;4978419;28;20128;-83
2023/10/11 14:30:14;;;;;;;11.48;2.80;;;;;;;;;;5010655;28;20045;-82
2023/10/11 14:32:41;;;;;;;11.10;3.45;;;;;;;;;;5004586;28;20045;-82
2023/10/11 14:35:08;;;;;;;14.00;4.55;;;;;;;;;;4998949;28;20068;-82
2023/10/11 14:37:35;;;;;;;14.02;4.80;;;;;;;;;;4974855;28;20038;-83
2023/10/11 14:40:01;;;;;;;14.60;4.63;;;;;;;;;;4987352;28;20101;-83
2023/10/11 14:42:29;;;;;;;11.82;4.55;;;;;;;;;;5001688;28;20041;-81
2023/10/11 14:44:56;;;;;;;13.55;5.28;;;;;;;;;;4976213;28;20113;-81
2023/10/11 14:47:24;;;;;;;12.30;4.50;;;;;;;;;;4986390;28;20069;-84
2023/10/11 14:49:50;;;;;;;14.60;5.18;;;;;;;;;;4986306;28;20061;-81
2023/10/11 14:52:18;;;;;;;14.18;4.15;;;;;;;;;;4974100;28;20042;-82
2023/10/11 14:54:46;;;;;;;10.90;4.47;;;;;;;;;;4998476;28;20460;-83
2023/10/11 14:57:13;;;;;;;11.45;5.13;;;;;;;;;;5016787;28;20057;-81
2023/10/11 14:59:40;;;;;;;12.32;5.57;;;;;;;;;;4986328;28;20512;-82
2023/10/11 15:02:06;;;;;;;23.15;6.68;;;;;;;;;;4989808;28;20813;-83
2023/10/11 15:04:35;;;;;;;13.23;5.65;;;;;;;;;;4985147;28;20401;-84
2023/10/11 15:07:01;;;;;;;10.73;4.80;;;;;;;;;;4991563;28;20041;-82
2023/10/11 15:09:33;;;;;;;15.75;5.60;;;;;;;;;;5004785;28;20042;-85
2023/10/11 15:11:59;;;;;;;17.23;5.85;;;;;;;;;;5000521;28;20042;-82
2023/10/11 15:14:25;;;;;;;13.82;5.03;;;;;;;;;;4988994;28;22076;-83
2023/10/11 15:16:51;;;;;;;19.88;6.47;;;;;;;;;;4986341;28;20041;-81
2023/10/11 15:19:19;;;;;;;9.73;4.47;;;;;;;;;;4992655;28;20073;-83
2023/10/11 15:21:45;;;;;;;14.57;6.20;;;;;;;;;;5000581;28;20073;-83
2023/10/11 15:24:13;;;;;;;18.17;5.97;;;;;;;;;;4995548;28;20498;-83
2023/10/11 15:26:40;;;;;;;17.88;5.25;;;;;;;;;;4992255;28;20062;-83
2023/10/11 15:29:06;;;;;;;14.00;5.22;;;;;;;;;;5001437;28;20045;-83
2023/10/11 15:31:33;;;;;;;11.40;5.28;;;;;;;;;;5003893;28;20497;-82